^^
B2 Weather Station Historical Data
Daily Summary for March 12, 2018 Units:  English    Metric   Both
Daily Weekly Monthly Yearly Custom
  High: Low: Average:
Temperature: 44.2 °F 27.0 °F 34.8 °F
Dew Point: 34.7 °F 20.2 °F 26 °F
Humidity: 92% 47% 71%
Wind Speed: 19.6mph 0.0mph 6.5mph
Wind Gust: 19.6mph - -
Wind- - WNW
Pressure: 30.20 in 30.10 in -
Precipitation: 0.00 in    
Historical Graphs
 
 
Tabular Data for March 12, 2018
Time Temperature Dew Point Pressure Wind Wind Speed Wind Gust Humidity Rainfall Rate (Hourly) solar
00:01 27.0 °F 20.4 °F 30.20 in Calm     76% 0.00 in 0.0 W/m2
00:06 27.0 °F 20.4 °F 30.20 in Calm     76% 0.00 in 0.0 W/m2
00:11 27.1 °F 20.5 °F 30.19 in Calm     76% 0.00 in 0.0 W/m2
00:16 27.2 °F 20.6 °F 30.19 in Calm     76% 0.00 in 0.0 W/m2
00:21 27.3 °F 20.4 °F 30.19 in Calm     75% 0.00 in 0.0 W/m2
00:26 27.4 °F 20.5 °F 30.19 in Calm     75% 0.00 in 0.0 W/m2
00:31 27.5 °F 20.6 °F 30.19 in Calm     75% 0.00 in 0.0 W/m2
00:36 27.8 °F 20.6 °F 30.19 in Calm     74% 0.00 in 0.0 W/m2
00:41 27.9 °F 20.7 °F 30.19 in Calm     74% 0.00 in 0.0 W/m2
00:46 27.9 °F 20.4 °F 30.19 in Calm     73% 0.00 in 0.0 W/m2
00:51 27.9 °F 20.4 °F 30.19 in Calm     73% 0.00 in 0.0 W/m2
00:56 27.8 °F 20.3 °F 30.19 in Calm     73% 0.00 in 0.0 W/m2
01:01 27.7 °F 20.5 °F 30.19 in Calm     74% 0.00 in 0.0 W/m2
01:06 27.6 °F 20.4 °F 30.19 in Calm     74% 0.00 in 0.0 W/m2
01:11 27.4 °F 20.2 °F 30.19 in Calm     74% 0.00 in 0.0 W/m2
01:16 27.3 °F 20.4 °F 30.19 in Calm     75% 0.00 in 0.0 W/m2
01:21 27.2 °F 20.3 °F 30.19 in Calm     75% 0.00 in 0.0 W/m2
01:26 27.2 °F 20.3 °F 30.19 in Calm     75% 0.00 in 0.0 W/m2
01:31 27.2 °F 20.3 °F 30.19 in Calm     75% 0.00 in 0.0 W/m2
01:36 27.2 °F 20.3 °F 30.19 in Calm     75% 0.00 in 0.0 W/m2
01:41 27.2 °F 20.3 °F 30.19 in Calm     75% 0.00 in 0.0 W/m2
01:46 27.2 °F 20.3 °F 30.19 in WNW 5.8 mph 5.8 mph 75% 0.00 in 0.0 W/m2
01:51 27.3 °F 20.4 °F 30.19 in WNW 1.2 mph 1.2 mph 75% 0.00 in 0.0 W/m2
01:56 27.3 °F 20.4 °F 30.18 in WNW 1.2 mph 1.2 mph 75% 0.00 in 0.0 W/m2
02:01 27.4 °F 20.5 °F 30.18 in WNW 1.2 mph 1.2 mph 75% 0.00 in 0.0 W/m2
02:06 27.5 °F 20.6 °F 30.18 in WNW 1.2 mph   75% 0.00 in 0.0 W/m2
02:11 27.5 °F 20.6 °F 30.18 in WNW 2.3 mph 2.3 mph 75% 0.00 in 0.0 W/m2
02:16 27.6 °F 20.7 °F 30.18 in WNW 2.3 mph 2.3 mph 75% 0.00 in 0.0 W/m2
02:21 27.6 °F 20.4 °F 30.18 in WNW 2.3 mph 2.3 mph 74% 0.00 in 0.0 W/m2
02:26 27.6 °F 20.4 °F 30.18 in Calm     74% 0.00 in 0.0 W/m2
02:31 27.6 °F 20.4 °F 30.18 in Calm     74% 0.00 in 0.0 W/m2
02:36 27.6 °F 20.4 °F 30.18 in Calm     74% 0.00 in 0.0 W/m2
02:41 27.7 °F 20.5 °F 30.17 in Calm     74% 0.00 in 0.0 W/m2
02:46 27.8 °F 20.3 °F 30.17 in Calm     73% 0.00 in 0.0 W/m2
02:47 27.8 °F 20.3 °F 30.17 in Calm     73% 0.00 in 0.0 W/m2
02:52 27.9 °F 20.4 °F 30.17 in WNW 1.2 mph 1.2 mph 73% 0.00 in 0.0 W/m2
02:57 28.1 °F 20.6 °F 30.17 in Calm     73% 0.00 in 0.0 W/m2
03:02 28.3 °F 20.7 °F 30.17 in Calm     73% 0.00 in 0.0 W/m2
03:07 28.7 °F 20.8 °F 30.17 in WNW 2.3 mph 2.3 mph 72% 0.00 in 0.0 W/m2
03:12 29.1 °F 21.2 °F 30.17 in NW 2.3 mph 2.3 mph 72% 0.00 in 0.0 W/m2
03:17 29.6 °F 21.3 °F 30.17 in WNW 1.2 mph   71% 0.00 in 0.0 W/m2
03:22 29.8 °F 21.5 °F 30.16 in Calm     71% 0.00 in 0.0 W/m2
03:27 29.9 °F 21.6 °F 30.16 in Calm     71% 0.00 in 0.0 W/m2
03:32 29.9 °F 21.3 °F 30.16 in West 1.2 mph 1.2 mph 70% 0.00 in 0.0 W/m2
03:37 29.9 °F 21.3 °F 30.16 in Calm     70% 0.00 in 0.0 W/m2
03:43 30.0 °F 21.4 °F 30.16 in Calm     70% 0.00 in 0.0 W/m2
03:48 30.1 °F 21.5 °F 30.16 in Calm     70% 0.00 in 0.0 W/m2
03:53 30.3 °F 21.7 °F 30.15 in Calm     70% 0.00 in 0.0 W/m2
03:58 30.5 °F 21.9 °F 30.15 in Calm     70% 0.00 in 0.0 W/m2
04:03 30.6 °F 22.0 °F 30.15 in West 2.0 mph   70% 0.00 in 0.0 W/m2
04:08 30.8 °F 22.2 °F 30.15 in Calm     70% 0.00 in 0.0 W/m2
04:13 30.8 °F 22.2 °F 30.16 in Calm     70% 0.00 in 0.0 W/m2
04:18 31.0 °F 22.7 °F 30.15 in WNW 2.0 mph   71% 0.00 in 0.0 W/m2
04:23 31.1 °F 23.1 °F 30.15 in West 3.5 mph 3.5 mph 72% 0.00 in 0.0 W/m2
04:28 31.2 °F 23.5 °F 30.15 in Calm     73% 0.00 in 0.0 W/m2
04:33 31.2 °F 23.5 °F 30.15 in Calm     73% 0.00 in 0.0 W/m2
04:38 31.2 °F 23.2 °F 30.15 in Calm     72% 0.00 in 0.0 W/m2
04:43 31.2 °F 23.2 °F 30.15 in Calm     72% 0.00 in 0.0 W/m2
04:48 31.3 °F 23.3 °F 30.14 in Calm     72% 0.00 in 0.0 W/m2
04:53 31.4 °F 23.4 °F 30.14 in Calm     72% 0.00 in 0.0 W/m2
04:58 31.4 °F 23.4 °F 30.14 in Calm     72% 0.00 in 0.0 W/m2
05:03 31.4 °F 23.4 °F 30.14 in Calm     72% 0.00 in 0.0 W/m2
05:08 31.4 °F 23.4 °F 30.13 in Calm     72% 0.00 in 0.0 W/m2
05:13 31.5 °F 23.2 °F 30.14 in Calm     71% 0.00 in 0.0 W/m2
05:18 31.6 °F 22.6 °F 30.13 in West 3.5 mph 3.5 mph 69% 0.00 in 0.0 W/m2
05:23 31.6 °F 22.2 °F 30.13 in West 3.5 mph 3.5 mph 68% 0.00 in 0.0 W/m2
05:28 31.6 °F 21.9 °F 30.13 in West 2.3 mph   67% 0.00 in 0.0 W/m2
05:33 31.7 °F 21.6 °F 30.13 in WSW 3.5 mph   66% 0.00 in 0.0 W/m2
05:38 31.7 °F 21.6 °F 30.13 in West 3.5 mph 3.5 mph 66% 0.00 in 0.0 W/m2
05:43 31.7 °F 22.0 °F 30.13 in West 4.6 mph 4.6 mph 67% 0.00 in 0.0 W/m2
05:48 31.7 °F 22.3 °F 30.12 in West 2.3 mph 2.3 mph 68% 0.00 in 0.0 W/m2
05:53 31.8 °F 23.1 °F 30.12 in WSW 7.0 mph 7.0 mph 70% 0.00 in 0.0 W/m2
05:58 31.9 °F 23.6 °F 30.12 in WSW 1.2 mph 1.2 mph 71% 0.00 in 0.0 W/m2
06:03 32.0 °F 24.0 °F 30.12 in WSW 3.5 mph 3.5 mph 72% 0.00 in 0.0 W/m2
06:08 31.9 °F 24.2 °F 30.12 in West 2.3 mph 2.3 mph 73% 0.00 in 0.0 W/m2
06:13 32.0 °F 25.0 °F 30.11 in West 4.6 mph 4.6 mph 75% 0.00 in 0.0 W/m2
06:18 32.0 °F 25.0 °F 30.11 in WNW 6.9 mph 6.9 mph 75% 0.00 in 0.0 W/m2
06:23 31.9 °F 25.2 °F 30.12 in WSW 9.0 mph 9.0 mph 76% 0.00 in 0.0 W/m2
06:28 32.1 °F 25.7 °F 30.12 in West 5.0 mph 5.0 mph 77% 0.00 in 0.0 W/m2
06:33 32.2 °F 26.1 °F 30.12 in WNW 3.5 mph 3.5 mph 78% 0.00 in 0.0 W/m2
06:38 32.3 °F 26.5 °F 30.12 in West 11.5 mph 11.5 mph 79% 0.00 in 0.0 W/m2
06:43 32.3 °F 26.5 °F 30.12 in West 8.1 mph 8.1 mph 79% 0.00 in 0.0 W/m2
06:48 32.4 °F 26.9 °F 30.12 in WNW 10.0 mph 10.0 mph 80% 0.00 in 0.0 W/m2
06:53 32.5 °F 27.3 °F 30.11 in West 8.1 mph 8.1 mph 81% 0.00 in 0.0 W/m2
06:58 32.6 °F 27.4 °F 30.11 in WSW 7.0 mph 7.0 mph 81% 0.00 in 0.0 W/m2
07:03 32.6 °F 27.7 °F 30.11 in West 6.9 mph 6.9 mph 82% 0.00 in 0.0 W/m2
07:08 32.8 °F 27.9 °F 30.11 in WSW 6.9 mph 6.9 mph 82% 0.00 in 0.0 W/m2
07:13 32.8 °F 28.2 °F 30.11 in WNW 3.5 mph   83% 0.00 in 0.0 W/m2
07:18 32.9 °F 28.3 °F 30.11 in West 11.5 mph 11.5 mph 83% 0.00 in 0.0 W/m2
07:23 32.9 °F 28.3 °F 30.11 in West 6.9 mph 6.9 mph 83% 0.00 in 0.0 W/m2
07:28 33.0 °F 28.7 °F 30.12 in WSW 9.2 mph 9.2 mph 84% 0.00 in 0.0 W/m2
07:33 33.1 °F 28.8 °F 30.12 in NW 8.1 mph 8.1 mph 84% 0.00 in 0.0 W/m2
07:38 33.2 °F 29.2 °F 30.12 in SW 10.4 mph 10.4 mph 85% 0.00 in 0.0 W/m2
07:43 33.2 °F 29.2 °F 30.12 in West 9.0 mph 9.0 mph 85% 0.00 in 5.0 W/m2
07:48 33.2 °F 29.2 °F 30.12 in West 11.5 mph 11.5 mph 85% 0.00 in 5.0 W/m2
07:53 33.2 °F 29.5 °F 30.12 in WNW 8.1 mph 8.1 mph 86% 0.00 in 5.0 W/m2
07:58 33.2 °F 29.8 °F 30.13 in WNW 6.9 mph 6.9 mph 87% 0.00 in 7.0 W/m2
08:03 33.2 °F 30.0 °F 30.12 in NW 6.9 mph 6.9 mph 88% 0.00 in 7.0 W/m2
08:08 33.2 °F 30.3 °F 30.13 in WNW 10.4 mph 10.4 mph 89% 0.00 in 9.0 W/m2
08:13 33.3 °F 30.4 °F 30.12 in WNW 10.4 mph 10.4 mph 89% 0.00 in 12.0 W/m2
08:18 33.3 °F 30.7 °F 30.12 in WNW 9.2 mph 9.2 mph 90% 0.00 in 18.0 W/m2
08:23 33.3 °F 30.7 °F 30.13 in NW 8.1 mph 8.1 mph 90% 0.00 in 21.0 W/m2
08:28 33.3 °F 31.0 °F 30.13 in NW 10.0 mph 10.0 mph 91% 0.00 in 25.0 W/m2
08:33 33.3 °F 31.0 °F 30.12 in WNW 8.0 mph 8.0 mph 91% 0.00 in 25.0 W/m2
08:38 33.4 °F 31.1 °F 30.12 in WNW 11.5 mph 11.5 mph 91% 0.00 in 42.0 W/m2
08:43 33.4 °F 31.1 °F 30.12 in West 8.1 mph 8.1 mph 91% 0.00 in 46.0 W/m2
08:49 33.5 °F 31.2 °F 30.13 in West 11.5 mph 11.5 mph 91% 0.00 in 65.0 W/m2
08:54 33.7 °F 31.6 °F 30.12 in WNW 11.5 mph 11.5 mph 92% 0.00 in 79.0 W/m2
08:59 33.9 °F 31.8 °F 30.12 in NW 8.1 mph 8.1 mph 92% 0.00 in 141.0 W/m2
09:04 34.3 °F 32.2 °F 30.12 in NNW 6.9 mph 6.9 mph 92% 0.00 in 100.0 W/m2
09:09 34.5 °F 32.4 °F 30.12 in NW 9.0 mph 9.0 mph 92% 0.00 in 125.0 W/m2
09:14 34.7 °F 32.3 °F 30.12 in NW 12.0 mph 12.0 mph 91% 0.00 in 123.0 W/m2
09:19 34.9 °F 32.5 °F 30.12 in NW 9.2 mph 9.2 mph 91% 0.00 in 176.0 W/m2
09:24 35.3 °F 32.9 °F 30.12 in NW 11.5 mph 11.5 mph 91% 0.00 in 195.0 W/m2
09:29 35.5 °F 33.1 °F 30.12 in WNW 10.4 mph 10.4 mph 91% 0.00 in 165.0 W/m2
09:34 35.7 °F 33.1 °F 30.12 in WNW 14.0 mph 14.0 mph 90% 0.00 in 163.0 W/m2
09:39 35.9 °F 33.3 °F 30.12 in NW 9.2 mph 9.2 mph 90% 0.00 in 158.0 W/m2
09:44 36.0 °F 33.1 °F 30.12 in NW 12.7 mph 12.7 mph 89% 0.00 in 214.0 W/m2
09:49 36.4 °F 33.7 °F 30.12 in WNW 11.5 mph 11.5 mph 90% 0.00 in 253.0 W/m2
09:54 36.6 °F 33.7 °F 30.12 in NW 11.5 mph 11.5 mph 89% 0.00 in 193.0 W/m2
09:59 36.4 °F 33.2 °F 30.12 in WNW 10.4 mph 10.4 mph 88% 0.00 in 141.0 W/m2
10:04 36.3 °F 32.8 °F 30.12 in NW 8.1 mph 8.1 mph 87% 0.00 in 116.0 W/m2
10:09 36.3 °F 32.8 °F 30.12 in NW 11.5 mph 11.5 mph 87% 0.00 in 230.0 W/m2
10:12 36.6 °F 33.4 °F 30.12 in NNW 10.4 mph 10.4 mph 88% 0.00 in 265.0 W/m2
10:17 37.6 °F 34.7 °F 30.12 in NNW 11.5 mph 11.5 mph 89% 0.00 in 452.0 W/m2
10:22 37.8 °F 33.7 °F 30.12 in NW 12.7 mph 12.7 mph 85% 0.00 in 278.0 W/m2
10:27 37.7 °F 33.0 °F 30.12 in NW 18.4 mph 18.4 mph 83% 0.00 in 279.0 W/m2
10:32 37.8 °F 32.8 °F 30.12 in NW 15.0 mph 15.0 mph 82% 0.00 in 197.0 W/m2
10:37 37.6 °F 32.0 °F 30.12 in NNW 13.8 mph 13.8 mph 80% 0.00 in 121.0 W/m2
10:42 37.5 °F 31.6 °F 30.12 in WNW 16.1 mph 16.1 mph 79% 0.00 in 146.0 W/m2
10:47 37.5 °F 31.3 °F 30.12 in NW 12.7 mph 12.7 mph 78% 0.00 in 128.0 W/m2
10:52 37.5 °F 30.6 °F 30.12 in NW 9.2 mph 9.2 mph 76% 0.00 in 172.0 W/m2
10:57 37.6 °F 30.7 °F 30.12 in WNW 15.0 mph 15.0 mph 76% 0.00 in 128.0 W/m2
11:02 37.6 °F 30.7 °F 30.13 in NW 11.5 mph 11.5 mph 76% 0.00 in 90.0 W/m2
11:07 37.5 °F 30.6 °F 30.12 in WNW 12.7 mph 12.7 mph 76% 0.00 in 121.0 W/m2
11:12 37.5 °F 30.9 °F 30.12 in NW 12.7 mph 12.7 mph 77% 0.00 in 121.0 W/m2
11:17 37.4 °F 30.5 °F 30.13 in WNW 15.0 mph 15.0 mph 76% 0.00 in 137.0 W/m2
11:22 37.4 °F 30.5 °F 30.12 in NW 12.7 mph 12.7 mph 76% 0.00 in 151.0 W/m2
11:27 37.5 °F 30.6 °F 30.12 in NW 19.6 mph 19.6 mph 76% 0.00 in 169.0 W/m2
11:32 37.7 °F 30.5 °F 30.12 in NW 15.0 mph 15.0 mph 75% 0.00 in 135.0 W/m2
11:37 37.7 °F 30.2 °F 30.12 in NW 16.1 mph 16.1 mph 74% 0.00 in 118.0 W/m2
11:42 37.7 °F 29.8 °F 30.12 in NW 16.1 mph 16.1 mph 73% 0.00 in 169.0 W/m2
11:47 37.8 °F 29.2 °F 30.12 in WNW 12.7 mph 12.7 mph 71% 0.00 in 178.0 W/m2
11:52 38.0 °F 28.7 °F 30.12 in NW 17.3 mph 17.3 mph 69% 0.00 in 190.0 W/m2
11:57 38.3 °F 29.4 °F 30.12 in NW 14.0 mph 14.0 mph 70% 0.00 in 209.0 W/m2
12:02 38.4 °F 29.5 °F 30.12 in North 13.8 mph 13.8 mph 70% 0.00 in 171.0 W/m2
12:07 38.3 °F 29.0 °F 30.12 in NW 17.3 mph 17.3 mph 69% 0.00 in 176.0 W/m2
12:12 38.5 °F 29.2 °F 30.12 in NW 13.8 mph 13.8 mph 69% 0.00 in 285.0 W/m2
12:17 38.8 °F 28.8 °F 30.12 in NW 17.3 mph 17.3 mph 67% 0.00 in 279.0 W/m2
12:22 38.9 °F 28.5 °F 30.12 in NW 19.6 mph 19.6 mph 66% 0.00 in 290.0 W/m2
12:27 39.0 °F 28.2 °F 30.12 in NNW 15.0 mph 15.0 mph 65% 0.00 in 274.0 W/m2
12:32 39.2 °F 28.0 °F 30.12 in NNW 13.8 mph 13.8 mph 64% 0.00 in 243.0 W/m2
12:37 39.3 °F 28.5 °F 30.13 in NW 16.1 mph 16.1 mph 65% 0.00 in 213.0 W/m2
12:42 39.3 °F 27.4 °F 30.12 in NW 17.3 mph 17.3 mph 62% 0.00 in 239.0 W/m2
12:47 39.6 °F 27.2 °F 30.12 in NNW 15.0 mph 15.0 mph 61% 0.00 in 313.0 W/m2
12:52 40.0 °F 26.8 °F 30.12 in NNW 13.8 mph 13.8 mph 59% 0.00 in 243.0 W/m2
12:57 40.0 °F 26.8 °F 30.12 in NW 15.0 mph 15.0 mph 59% 0.00 in 297.0 W/m2
13:02 40.2 °F 27.0 °F 30.12 in WNW 16.1 mph 16.1 mph 59% 0.00 in 327.0 W/m2
13:07 40.8 °F 28.4 °F 30.12 in NNW 12.0 mph 12.0 mph 61% 0.00 in 327.0 W/m2
13:12 40.6 °F 27.0 °F 30.12 in NW 15.0 mph 15.0 mph 58% 0.00 in 239.0 W/m2
13:17 40.1 °F 26.9 °F 30.12 in WNW 11.5 mph 11.5 mph 59% 0.00 in 241.0 W/m2
13:22 40.3 °F 27.1 °F 30.12 in WNW 12.0 mph 12.0 mph 59% 0.00 in 278.0 W/m2
13:28 41.4 °F 27.7 °F 30.12 in NW 19.6 mph 19.6 mph 58% 0.00 in 278.0 W/m2
13:33 40.9 °F 27.7 °F 30.12 in NW 12.7 mph 12.7 mph 59% 0.00 in 561.0 W/m2
13:38 41.0 °F 26.9 °F 30.12 in NW 16.1 mph 16.1 mph 57% 0.00 in 313.0 W/m2
13:43 40.8 °F 26.7 °F 30.11 in NNW 12.7 mph 12.7 mph 57% 0.00 in 260.0 W/m2
13:48 40.7 °F 27.1 °F 30.11 in NW 17.0 mph 17.0 mph 58% 0.00 in 243.0 W/m2
13:53 40.7 °F 27.5 °F 30.11 in NW 13.8 mph 13.8 mph 59% 0.00 in 253.0 W/m2
13:58 40.7 °F 27.9 °F 30.11 in West 12.7 mph 12.7 mph 60% 0.00 in 374.0 W/m2
14:03 41.6 °F 28.3 °F 30.11 in NW 12.7 mph 12.7 mph 59% 0.00 in 891.0 W/m2
14:08 42.5 °F 27.5 °F 30.11 in NNW 16.1 mph 16.1 mph 55% 0.00 in 898.0 W/m2
14:13 42.8 °F 26.4 °F 30.11 in NW 12.7 mph 12.7 mph 52% 0.00 in 243.0 W/m2
14:18 42.1 °F 27.1 °F 30.11 in NW 15.0 mph 15.0 mph 55% 0.00 in 253.0 W/m2
14:23 41.5 °F 26.1 °F 30.10 in NW 15.0 mph 15.0 mph 54% 0.00 in 357.0 W/m2
14:28 41.6 °F 27.1 °F 30.10 in WNW 11.5 mph 11.5 mph 56% 0.00 in 315.0 W/m2
14:33 41.6 °F 26.6 °F 30.10 in WNW 12.7 mph 12.7 mph 55% 0.00 in 301.0 W/m2
14:38 41.6 °F 27.5 °F 30.10 in NNW 9.2 mph 9.2 mph 57% 0.00 in 318.0 W/m2
14:43 41.8 °F 26.4 °F 30.10 in NW 12.0 mph 12.0 mph 54% 0.00 in 197.0 W/m2
14:48 41.5 °F 26.5 °F 30.10 in WNW 11.5 mph 11.5 mph 55% 0.00 in 299.0 W/m2
14:53 42.4 °F 27.8 °F 30.10 in NW 12.7 mph 12.7 mph 56% 0.00 in 835.0 W/m2
14:58 42.9 °F 26.5 °F 30.10 in NNW 15.0 mph 15.0 mph 52% 0.00 in 295.0 W/m2
15:03 42.8 °F 27.3 °F 30.10 in NNW 9.2 mph 9.2 mph 54% 0.00 in 334.0 W/m2
15:08 43.7 °F 27.2 °F 30.10 in NW 11.5 mph 11.5 mph 52% 0.00 in 701.0 W/m2
15:13 44.1 °F 27.1 °F 30.10 in NNW 12.0 mph 12.0 mph 51% 0.00 in 504.0 W/m2
15:18 43.5 °F 27.0 °F 30.10 in WNW 8.1 mph 8.1 mph 52% 0.00 in 202.0 W/m2
15:23 43.1 °F 26.7 °F 30.10 in NW 11.5 mph 11.5 mph 52% 0.00 in 246.0 W/m2
15:28 42.9 °F 26.5 °F 30.10 in NNW 10.4 mph 10.4 mph 52% 0.00 in 209.0 W/m2
15:33 42.6 °F 26.2 °F 30.10 in NW 11.5 mph 11.5 mph 52% 0.00 in 216.0 W/m2
15:38 42.8 °F 25.9 °F 30.10 in NW 10.4 mph 10.4 mph 51% 0.00 in 274.0 W/m2
15:43 43.2 °F 26.7 °F 30.10 in NNW 8.1 mph 8.1 mph 52% 0.00 in 265.0 W/m2
15:48 43.2 °F 26.3 °F 30.10 in WNW 11.5 mph 11.5 mph 51% 0.00 in 241.0 W/m2
15:53 43.2 °F 26.3 °F 30.10 in WNW 10.4 mph 10.4 mph 51% 0.00 in 200.0 W/m2
15:58 43.4 °F 26.0 °F 30.10 in NW 9.2 mph 9.2 mph 50% 0.00 in 260.0 W/m2
16:03 44.0 °F 27.0 °F 30.10 in NNW 13.8 mph 13.8 mph 51% 0.00 in 643.0 W/m2
16:08 43.7 °F 25.8 °F 30.10 in WNW 11.5 mph 11.5 mph 49% 0.00 in 186.0 W/m2
16:13 43.2 °F 25.8 °F 30.10 in WNW 15.0 mph 15.0 mph 50% 0.00 in 213.0 W/m2
16:18 43.5 °F 25.6 °F 30.10 in NW 13.8 mph 13.8 mph 49% 0.00 in 559.0 W/m2
16:23 43.6 °F 25.2 °F 30.10 in NNW 11.5 mph 11.5 mph 48% 0.00 in 172.0 W/m2
16:28 43.3 °F 24.9 °F 30.10 in NW 15.0 mph 15.0 mph 48% 0.00 in 214.0 W/m2
16:33 43.8 °F 26.3 °F 30.10 in WNW 10.0 mph 10.0 mph 50% 0.00 in 538.0 W/m2
16:38 44.2 °F 25.2 °F 30.10 in NW 12.7 mph 12.7 mph 47% 0.00 in 529.0 W/m2
16:43 43.6 °F 24.7 °F 30.11 in NW 17.0 mph 17.0 mph 47% 0.00 in 176.0 W/m2
16:48 43.2 °F 24.3 °F 30.10 in NW 12.7 mph 12.7 mph 47% 0.00 in 146.0 W/m2
16:53 42.7 °F 24.4 °F 30.11 in NW 10.4 mph 10.4 mph 48% 0.00 in 151.0 W/m2
16:58 42.5 °F 25.1 °F 30.11 in WNW 11.5 mph 11.5 mph 50% 0.00 in 156.0 W/m2
17:03 42.5 °F 25.6 °F 30.10 in NW 9.0 mph 9.0 mph 51% 0.00 in 345.0 W/m2
17:08 42.8 °F 24.9 °F 30.11 in NW 12.7 mph 12.7 mph 49% 0.00 in 267.0 W/m2
17:13 42.9 °F 25.5 °F 30.11 in NW 15.0 mph 15.0 mph 50% 0.00 in 120.0 W/m2
17:18 42.7 °F 25.3 °F 30.11 in WNW 11.5 mph 11.5 mph 50% 0.00 in 88.0 W/m2
17:23 42.4 °F 25.1 °F 30.11 in NW 11.5 mph 11.5 mph 50% 0.00 in 69.0 W/m2
17:28 42.1 °F 24.8 °F 30.11 in NW 10.4 mph 10.4 mph 50% 0.00 in 65.0 W/m2
17:33 41.9 °F 25.1 °F 30.11 in NW 10.4 mph 10.4 mph 51% 0.00 in 77.0 W/m2
17:38 41.9 °F 25.1 °F 30.11 in NNW 11.5 mph 11.5 mph 51% 0.00 in 186.0 W/m2
17:43 42.1 °F 25.3 °F 30.11 in NW 8.1 mph 8.1 mph 51% 0.00 in 97.0 W/m2
17:48 42.2 °F 25.3 °F 30.11 in NW 10.0 mph 10.0 mph 51% 0.00 in 188.0 W/m2
17:53 42.4 °F 25.1 °F 30.11 in WNW 12.7 mph 12.7 mph 50% 0.00 in 77.0 W/m2
17:58 42.1 °F 25.3 °F 30.12 in NW 18.0 mph 18.0 mph 51% 0.00 in 58.0 W/m2
18:03 41.8 °F 25.4 °F 30.12 in NNW 11.5 mph 11.5 mph 52% 0.00 in 130.0 W/m2
18:08 41.8 °F 25.9 °F 30.12 in NNW 12.7 mph 12.7 mph 53% 0.00 in 105.0 W/m2
18:13 41.8 °F 25.4 °F 30.12 in NNW 11.0 mph 11.0 mph 52% 0.00 in 72.0 W/m2
18:18 41.7 °F 25.4 °F 30.12 in NW 11.5 mph 11.5 mph 52% 0.00 in 60.0 W/m2
18:23 41.5 °F 25.2 °F 30.12 in NNW 12.0 mph 12.0 mph 52% 0.00 in 32.0 W/m2
18:28 41.0 °F 26.1 °F 30.13 in North 11.5 mph 11.5 mph 55% 0.00 in 19.0 W/m2
18:33 40.2 °F 25.7 °F 30.13 in NNW 6.9 mph 6.9 mph 56% 0.00 in 12.0 W/m2
18:38 39.5 °F 25.9 °F 30.13 in NNW 5.8 mph 5.8 mph 58% 0.00 in 11.0 W/m2
18:43 39.0 °F 25.5 °F 30.13 in Calm     58% 0.00 in 9.0 W/m2
18:48 38.7 °F 25.2 °F 30.13 in Calm     58% 0.00 in 7.0 W/m2
18:53 38.4 °F 24.9 °F 30.13 in Calm     58% 0.00 in 0.0 W/m2
18:58 38.3 °F 25.2 °F 30.14 in Calm     59% 0.00 in 0.0 W/m2
19:00 38.2 °F 25.5 °F 30.14 in Calm     60% 0.00 in 0.0 W/m2
19:05 37.9 °F 25.2 °F 30.14 in Calm     60% 0.00 in 0.0 W/m2
19:10 37.7 °F 25.5 °F 30.14 in Calm     61% 0.00 in 0.0 W/m2
19:15 37.5 °F 25.7 °F 30.14 in Calm     62% 0.00 in 0.0 W/m2
19:20 36.9 °F 25.9 °F 30.14 in Calm     64% 0.00 in 0.0 W/m2
19:25 36.8 °F 25.8 °F 30.14 in Calm     64% 0.00 in 0.0 W/m2
19:30 37.0 °F 25.9 °F 30.15 in Calm     64% 0.00 in 0.0 W/m2
19:35 36.6 °F 26.3 °F 30.15 in Calm     66% 0.00 in 0.0 W/m2
19:40 36.4 °F 27.5 °F 30.15 in NE 5.0 mph 5.0 mph 70% 0.00 in 0.0 W/m2
19:45 36.6 °F 27.7 °F 30.15 in NE 11.5 mph 11.5 mph 70% 0.00 in 0.0 W/m2
19:46 36.6 °F 27.7 °F 30.15 in NE 10.4 mph 10.4 mph 70% 0.00 in 0.0 W/m2
19:51 36.3 °F 28.1 °F 30.15 in NNE 4.6 mph 4.6 mph 72% 0.00 in 0.0 W/m2
19:56 36.0 °F 28.2 °F 30.15 in NNE 11.5 mph 11.5 mph 73% 0.00 in 0.0 W/m2
20:01 35.7 °F 28.2 °F 30.15 in NE 6.9 mph 6.9 mph 74% 0.00 in 0.0 W/m2
20:06 35.3 °F 27.8 °F 30.16 in NNE 1.2 mph 1.2 mph 74% 0.00 in 0.0 W/m2
20:11 34.7 °F 27.6 °F 30.16 in Calm     75% 0.00 in 0.0 W/m2
20:16 34.1 °F 27.6 °F 30.16 in Calm     77% 0.00 in 0.0 W/m2
20:21 33.8 °F 27.7 °F 30.16 in NE 2.3 mph 2.3 mph 78% 0.00 in 0.0 W/m2
20:26 33.4 °F 27.6 °F 30.16 in Calm     79% 0.00 in 0.0 W/m2
20:31 33.1 °F 27.0 °F 30.16 in Calm     78% 0.00 in 0.0 W/m2
20:36 32.7 °F 26.9 °F 30.16 in Calm     79% 0.00 in 0.0 W/m2
20:41 32.5 °F 27.0 °F 30.16 in Calm     80% 0.00 in 0.0 W/m2
20:46 32.3 °F 26.5 °F 30.16 in Calm     79% 0.00 in 0.0 W/m2
20:52 31.7 °F 26.2 °F 30.16 in Calm     80% 0.00 in 0.0 W/m2
20:57 31.7 °F 26.5 °F 30.16 in Calm     81% 0.00 in 0.0 W/m2
21:02 31.7 °F 26.5 °F 30.16 in Calm     81% 0.00 in 0.0 W/m2
21:07 31.6 °F 26.4 °F 30.16 in Calm     81% 0.00 in 0.0 W/m2
21:12 31.6 °F 26.4 °F 30.16 in Calm     81% 0.00 in 0.0 W/m2
21:17 31.5 °F 26.3 °F 30.16 in Calm     81% 0.00 in 0.0 W/m2
21:22 31.4 °F 26.2 °F 30.16 in Calm     81% 0.00 in 0.0 W/m2
21:27 31.4 °F 26.2 °F 30.17 in Calm     81% 0.00 in 0.0 W/m2
21:32 31.3 °F 26.4 °F 30.17 in Calm     82% 0.00 in 0.0 W/m2
21:37 31.2 °F 26.3 °F 30.17 in Calm     82% 0.00 in 0.0 W/m2
21:42 31.1 °F 26.2 °F 30.17 in Calm     82% 0.00 in 0.0 W/m2
21:47 31.1 °F 26.2 °F 30.16 in Calm     82% 0.00 in 0.0 W/m2
21:52 30.7 °F 25.0 °F 30.16 in Calm     79% 0.00 in 0.0 W/m2
21:57 30.6 °F 25.8 °F 30.16 in Calm     82% 0.00 in 0.0 W/m2
22:02 30.6 °F 25.8 °F 30.16 in Calm     82% 0.00 in 0.0 W/m2
22:07 30.6 °F 25.8 °F 30.16 in Calm     82% 0.00 in 0.0 W/m2
22:12 30.5 °F 25.7 °F 30.16 in Calm     82% 0.00 in 0.0 W/m2
22:17 30.5 °F 26.0 °F 30.16 in Calm     83% 0.00 in 0.0 W/m2
22:22 30.4 °F 25.9 °F 30.16 in Calm     83% 0.00 in 0.0 W/m2
22:27 30.3 °F 25.8 °F 30.17 in Calm     83% 0.00 in 0.0 W/m2
22:32 30.3 °F 25.8 °F 30.17 in Calm     83% 0.00 in 0.0 W/m2
22:37 30.3 °F 25.8 °F 30.17 in Calm     83% 0.00 in 0.0 W/m2
22:42 30.3 °F 25.8 °F 30.17 in Calm     83% 0.00 in 0.0 W/m2
22:47 30.4 °F 25.9 °F 30.17 in Calm     83% 0.00 in 0.0 W/m2
22:52 30.5 °F 26.0 °F 30.17 in Calm     83% 0.00 in 0.0 W/m2
22:57 30.5 °F 25.7 °F 30.18 in Calm     82% 0.00 in 0.0 W/m2
23:02 30.4 °F 25.6 °F 30.18 in Calm     82% 0.00 in 0.0 W/m2
23:07 29.6 °F 24.5 °F 30.18 in Calm     81% 0.00 in 0.0 W/m2
23:12 29.4 °F 25.2 °F 30.17 in Calm     84% 0.00 in 0.0 W/m2
23:17 29.7 °F 25.5 °F 30.18 in Calm     84% 0.00 in 0.0 W/m2
23:22 29.4 °F 24.9 °F 30.18 in Calm     83% 0.00 in 0.0 W/m2
23:27 29.2 °F 24.7 °F 30.18 in Calm     83% 0.00 in 0.0 W/m2
23:32 29.1 °F 24.9 °F 30.18 in Calm     84% 0.00 in 0.0 W/m2
23:37 28.8 °F 24.3 °F 30.18 in Calm     83% 0.00 in 0.0 W/m2
23:42 28.6 °F 24.1 °F 30.18 in Calm     83% 0.00 in 0.0 W/m2
23:47 28.8 °F 24.9 °F 30.17 in Calm     85% 0.00 in 0.0 W/m2
23:52 28.9 °F 24.7 °F 30.17 in Calm     84% 0.00 in 0.0 W/m2
23:57 29.0 °F 24.8 °F 30.17 in Calm     84% 0.00 in 0.0 W/m2
Bourbonnais, Illinois, USA
Compliments of Weather Underground - 2 mb